Time;durP1;ratioP1;P1;durP2;ratioP2;P2;SDS_P1;SDS_P2;PMS_P1;PMS_P2;Temp;Humidity;BMP_temperature;BMP_pressure;BME280_temperature;BME280_humidity;BME280_pressure;Samples;Min_cycle;Max_cycle;Signal;HPM_P1;HPM_P2
2023/09/23 00:01:32;;;;;;;1.35;0.70;;;;;;;13.11;93.68;100326.41;5030670;28;20037;-66
2023/09/23 00:03:58;;;;;;;2.78;0.70;;;;;;;13.11;94.02;100333.34;5027028;28;20053;-66
2023/09/23 00:06:24;;;;;;;1.58;0.80;;;;;;;13.12;94.16;100338.47;5026418;28;20060;-66
2023/09/23 00:08:50;;;;;;;1.73;1.00;;;;;;;13.11;93.76;100341.97;5035897;28;20432;-66
2023/09/23 00:11:16;;;;;;;1.85;1.20;;;;;;;13.11;94.03;100349.75;5025730;28;20115;-67
2023/09/23 00:13:42;;;;;;;1.38;0.90;;;;;;;13.09;94.04;100348.94;5029637;28;20547;-66
2023/09/23 00:16:08;;;;;;;1.92;0.80;;;;;;;13.12;92.92;100343.66;5026630;28;20104;-66
2023/09/23 00:18:33;;;;;;;1.52;0.80;;;;;;;13.12;93.81;100351.44;5027053;28;20029;-66
2023/09/23 00:20:59;;;;;;;2.08;1.00;;;;;;;13.11;93.65;100351.50;5028322;28;20039;-66
2023/09/23 00:23:24;;;;;;;1.58;0.88;;;;;;;13.09;93.80;100358.47;5029256;28;20038;-66
2023/09/23 00:25:51;;;;;;;1.83;0.82;;;;;;;13.10;94.01;100347.19;5032120;28;20049;-66
2023/09/23 00:28:16;;;;;;;1.40;0.93;;;;;;;13.07;93.80;100361.09;5028391;28;20567;-66
2023/09/23 00:30:41;;;;;;;5.78;1.08;;;;;;;13.05;94.15;100362.03;5029826;28;20108;-65
2023/09/23 00:33:07;;;;;;;1.42;0.80;;;;;;;12.98;94.05;100372.53;5025443;28;20484;-66
2023/09/23 00:35:36;;;;;;;0.70;0.60;;;;;;;12.91;94.32;100365.78;5026014;28;20746;-66
2023/09/23 00:38:02;;;;;;;0.90;0.47;;;;;;;12.86;93.66;100371.97;5026952;28;20033;-66
2023/09/23 00:40:37;;;;;;;2.33;1.00;;;;;;;12.79;94.82;100380.78;5025662;28;20026;-66
2023/09/23 00:43:12;;;;;;;1.10;0.90;;;;;;;12.72;94.93;100385.25;5025936;28;20036;-66
2023/09/23 00:45:45;;;;;;;0.93;0.57;;;;;;;12.71;94.85;100386.13;5025622;28;20522;-65
2023/09/23 00:48:12;;;;;;;1.10;0.75;;;;;;;12.70;94.74;100381.84;5027306;28;20020;-66
2023/09/23 00:50:37;;;;;;;1.60;0.90;;;;;;;12.73;95.15;100380.94;5023961;28;20045;-66
2023/09/23 00:53:04;;;;;;;1.95;0.80;;;;;;;12.74;95.17;100380.03;5025944;28;20745;-66
2023/09/23 00:55:31;;;;;;;2.63;0.73;;;;;;;12.71;95.09;100374.91;5029939;28;20567;-66
2023/09/23 00:58:00;;;;;;;1.00;0.82;;;;;;;12.64;95.41;100378.56;5026892;28;20041;-66
2023/09/23 01:00:28;;;;;;;1.00;0.85;;;;;;;12.56;95.20;100380.44;5029677;28;20075;-66
2023/09/23 01:02:55;;;;;;;1.10;0.85;;;;;;;12.50;95.72;100378.84;5025297;28;20767;-66
2023/09/23 01:05:27;;;;;;;0.70;0.60;;;;;;;12.50;96.08;100378.84;5020791;28;20048;-66
2023/09/23 01:07:56;;;;;;;2.42;0.85;;;;;;;12.53;95.41;100380.50;5026570;28;20041;-66
2023/09/23 01:10:22;;;;;;;1.55;0.88;;;;;;;12.56;95.75;100381.31;5021632;28;20486;-66
2023/09/23 01:12:47;;;;;;;1.67;1.13;;;;;;;12.58;95.44;100374.38;5025368;28;20120;-66
2023/09/23 01:15:13;;;;;;;2.17;0.70;;;;;;;12.56;95.45;100383.03;5034683;28;20109;-66
2023/09/23 01:17:38;;;;;;;1.25;0.95;;;;;;;12.52;95.73;100379.69;5029263;28;20029;-66
2023/09/23 01:20:08;;;;;;;2.05;0.88;;;;;;;12.45;95.43;100378.97;5029569;28;20405;-66
2023/09/23 01:22:34;;;;;;;1.73;0.88;;;;;;;12.38;96.01;100389.47;5035948;28;20044;-66
2023/09/23 01:25:00;;;;;;;2.13;0.85;;;;;;;12.28;96.54;100398.34;5038627;28;20116;-66
2023/09/23 01:27:25;;;;;;;1.80;0.90;;;;;;;12.20;96.91;100401.09;5030064;28;20104;-66
2023/09/23 01:29:53;;;;;;;1.88;1.10;;;;;;;12.13;97.64;100409.91;5033259;28;20045;-67
2023/09/23 01:32:28;;;;;;;1.95;0.93;;;;;;;12.08;97.84;100406.53;5028738;28;20411;-67
2023/09/23 01:34:54;;;;;;;3.10;1.25;;;;;;;12.02;98.71;100413.59;5029836;28;20125;-66
2023/09/23 01:37:21;;;;;;;3.17;1.00;;;;;;;12.00;98.49;100421.38;5029420;28;20036;-66
2023/09/23 01:39:47;;;;;;;2.25;1.38;;;;;;;12.02;99.21;100423.94;5030258;28;20049;-66
2023/09/23 01:42:13;;;;;;;4.35;1.10;;;;;;;12.03;99.13;100429.09;5042921;28;20025;-66
2023/09/23 01:44:38;;;;;;;2.30;0.90;;;;;;;12.06;99.33;100429.03;5032396;28;20041;-67
2023/09/23 01:47:04;;;;;;;0.93;0.77;;;;;;;12.10;99.31;100435.00;5029693;28;20095;-66
2023/09/23 01:49:31;;;;;;;2.97;0.98;;;;;;;12.07;99.26;100430.75;5028539;28;20033;-66
2023/09/23 01:51:56;;;;;;;2.33;0.98;;;;;;;12.02;99.65;100434.31;5030357;28;20055;-66
2023/09/23 01:54:22;;;;;;;2.78;0.90;;;;;;;11.98;99.75;100430.91;5031781;28;20495;-66
2023/09/23 01:56:47;;;;;;;1.40;0.88;;;;;;;11.91;100.00;100431.91;5036340;28;20044;-66
2023/09/23 01:59:13;;;;;;;2.40;1.00;;;;;;;11.83;100.00;100426.88;5027294;28;20111;-67
2023/09/23 02:01:40;;;;;;;2.95;1.00;;;;;;;11.78;100.00;100440.81;5027540;28;20053;-67
2023/09/23 02:04:07;;;;;;;1.65;1.00;;;;;;;11.78;100.00;100440.81;5033356;28;20025;-66
2023/09/23 02:06:38;;;;;;;2.17;1.10;;;;;;;11.78;100.00;100448.56;5029129;28;20040;-67
2023/09/23 02:09:04;;;;;;;2.08;0.90;;;;;;;11.80;100.00;100447.66;5040384;28;20041;-66
2023/09/23 02:11:30;;;;;;;2.25;0.95;;;;;;;11.76;100.00;100458.09;5034762;28;20825;-67
2023/09/23 02:13:55;;;;;;;3.50;1.15;;;;;;;11.71;100.00;100455.59;5038237;28;20045;-66
2023/09/23 02:16:21;;;;;;;2.35;1.00;;;;;;;11.68;100.00;100459.97;5022954;28;20029;-66
2023/09/23 02:18:51;;;;;;;1.83;0.90;;;;;;;11.62;100.00;100465.25;5028722;28;20042;-67
2023/09/23 02:21:18;;;;;;;3.58;1.35;;;;;;;11.56;100.00;100471.38;5035731;28;20105;-66
2023/09/23 02:23:43;;;;;;;1.92;1.30;;;;;;;11.52;100.00;100467.13;5028032;28;20038;-67
2023/09/23 02:26:09;;;;;;;2.45;0.90;;;;;;;11.48;100.00;100467.22;5028625;28;20044;-66
2023/09/23 02:28:35;;;;;;;3.28;1.10;;;;;;;11.43;100.00;100472.47;5027761;28;20037;-66
2023/09/23 02:31:00;;;;;;;1.17;1.08;;;;;;;11.38;100.00;100478.56;5029638;28;20038;-66
2023/09/23 02:33:26;;;;;;;3.45;1.00;;;;;;;11.34;100.00;100476.03;5026456;28;20037;-67
2023/09/23 02:35:52;;;;;;;3.53;1.20;;;;;;;11.33;100.00;100481.25;5035360;28;20029;-66
2023/09/23 02:38:18;;;;;;;1.17;0.90;;;;;;;11.34;100.00;100477.75;5028143;28;20100;-66
2023/09/23 02:40:44;;;;;;;1.88;1.08;;;;;;;11.31;100.00;100477.81;5034685;28;20119;-67
2023/09/23 02:43:10;;;;;;;3.97;1.42;;;;;;;11.29;100.00;100479.56;5036913;28;20086;-66
2023/09/23 02:45:35;;;;;;;5.55;1.52;;;;;;;11.30;100.00;100481.28;5031492;28;20398;-66
2023/09/23 02:48:00;;;;;;;2.22;1.10;;;;;;;11.31;100.00;100486.44;5037470;28;20763;-66
2023/09/23 02:50:26;;;;;;;4.60;1.25;;;;;;;11.29;100.00;100489.91;5027967;28;20507;-66
2023/09/23 02:52:51;;;;;;;4.00;1.10;;;;;;;11.28;100.00;100483.03;5027591;28;20120;-66
2023/09/23 02:55:19;;;;;;;3.33;1.45;;;;;;;11.24;100.00;100486.56;5028260;28;20042;-66
2023/09/23 02:57:49;;;;;;;4.55;1.30;;;;;;;11.20;100.00;100488.34;5027870;28;20108;-66
2023/09/23 03:00:29;;;;;;;3.70;1.00;;;;;;;11.17;100.00;100490.09;5027119;28;20039;-67
2023/09/23 03:02:57;;;;;;;3.92;1.10;;;;;;;11.13;100.00;100491.88;5025427;28;20041;-66
2023/09/23 03:05:26;;;;;;;5.68;1.30;;;;;;;11.11;100.00;100497.97;5027686;28;20044;-66
2023/09/23 03:07:57;;;;;;;2.65;1.23;;;;;;;11.07;100.00;100494.56;5034663;28;20048;-67
2023/09/23 03:10:31;;;;;;;1.60;0.98;;;;;;;11.04;100.00;100494.59;5024446;28;20042;-66
2023/09/23 03:13:07;;;;;;;4.57;1.35;;;;;;;11.04;100.00;100486.84;5028989;28;20038;-66
2023/09/23 03:16:06;;;;;;;2.65;1.55;;;;;;;11.02;100.00;100488.59;5031195;28;20016;-67
2023/09/23 03:18:36;;;;;;;2.00;1.40;;;;;;;11.02;100.00;100487.75;5039299;28;20045;-66
2023/09/23 03:21:08;;;;;;;4.03;1.38;;;;;;;11.02;100.00;100492.91;5028461;28;20045;-66
2023/09/23 03:23:39;;;;;;;4.40;1.40;;;;;;;11.03;100.00;100492.91;5026833;28;20129;-66
2023/09/23 03:26:08;;;;;;;3.05;1.50;;;;;;;11.03;100.00;100492.06;5028145;28;20172;-66
2023/09/23 03:28:39;;;;;;;4.72;1.23;;;;;;;11.08;100.00;100491.09;5026038;28;20026;-67
2023/09/23 03:31:08;;;;;;;2.15;1.17;;;;;;;11.08;100.00;100492.81;5034243;28;20060;-66
2023/09/23 03:33:34;;;;;;;5.13;1.55;;;;;;;11.07;100.00;100496.31;5026942;28;20025;-66
2023/09/23 03:35:59;;;;;;;1.92;1.20;;;;;;;11.06;100.00;100499.75;5027703;28;20034;-66
2023/09/23 03:38:25;;;;;;;2.85;1.17;;;;;;;11.04;100.00;100497.19;5026797;28;20085;-66
2023/09/23 03:40:52;;;;;;;2.28;1.10;;;;;;;11.04;100.00;100507.53;5026869;28;20628;-67
2023/09/23 03:43:17;;;;;;;4.07;1.23;;;;;;;11.06;100.00;100507.53;5025225;28;20042;-67
2023/09/23 03:45:43;;;;;;;4.38;1.17;;;;;;;11.08;100.00;100506.63;5026165;28;20484;-66
2023/09/23 03:48:10;;;;;;;4.22;1.50;;;;;;;11.07;100.00;100511.84;5030784;28;20051;-67
2023/09/23 03:50:36;;;;;;;3.97;1.40;;;;;;;11.09;100.00;100507.47;5026840;28;20076;-66
2023/09/23 03:53:01;;;;;;;3.83;1.27;;;;;;;11.12;100.00;100516.06;5025802;28;20107;-67
2023/09/23 03:55:27;;;;;;;2.58;1.30;;;;;;;11.13;100.00;100511.72;5026765;28;20044;-67
2023/09/23 03:57:54;;;;;;;4.53;1.35;;;;;;;11.12;100.00;100510.03;5033147;28;20112;-67
2023/09/23 04:00:26;;;;;;;4.07;1.50;;;;;;;11.11;100.00;100513.47;5026584;28;20025;-67
2023/09/23 04:02:51;;;;;;;3.25;1.10;;;;;;;11.08;100.00;100514.38;5031904;28;20040;-67
2023/09/23 04:05:19;;;;;;;2.70;1.15;;;;;;;11.05;100.00;100516.16;5034498;28;20403;-67
2023/09/23 04:07:51;;;;;;;1.95;1.33;;;;;;;11.02;100.00;100518.78;5032513;28;20052;-67
2023/09/23 04:10:18;;;;;;;3.03;1.55;;;;;;;11.01;100.00;100527.44;5025962;28;20488;-67
2023/09/23 04:12:43;;;;;;;5.55;1.35;;;;;;;11.00;100.00;100530.88;5026939;28;20068;-67
2023/09/23 04:15:09;;;;;;;4.18;1.80;;;;;;;11.03;100.00;100525.66;5025054;28;20553;-67
2023/09/23 04:17:35;;;;;;;4.25;1.00;;;;;;;11.03;100.00;100533.44;5024212;28;20041;-67
2023/09/23 04:20:03;;;;;;;6.60;1.50;;;;;;;11.01;100.00;100535.19;5027385;28;20039;-67
2023/09/23 04:22:29;;;;;;;4.65;1.35;;;;;;;11.02;100.00;100534.28;5026160;28;20044;-67
2023/09/23 04:24:54;;;;;;;4.00;1.38;;;;;;;11.03;100.00;100539.47;5027549;28;20811;-67
2023/09/23 04:27:20;;;;;;;3.83;1.23;;;;;;;11.03;100.00;100536.03;5029448;28;20036;-67
2023/09/23 04:29:47;;;;;;;7.95;1.77;;;;;;;11.03;100.00;100536.03;5028374;28;20037;-67
2023/09/23 04:32:12;;;;;;;3.17;1.15;;;;;;;11.02;100.00;100540.34;5035511;28;20041;-66
2023/09/23 04:34:38;;;;;;;4.78;1.27;;;;;;;11.04;100.00;100545.50;5029774;28;20033;-67
2023/09/23 04:37:04;;;;;;;3.60;1.20;;;;;;;11.10;100.00;100537.66;5029286;28;20469;-67
2023/09/23 04:39:30;;;;;;;5.10;1.52;;;;;;;11.15;100.00;100541.88;5030016;28;20471;-62
2023/09/23 04:41:56;;;;;;;2.58;1.25;;;;;;;11.15;100.00;100535.84;5033164;28;20038;-62
2023/09/23 04:44:21;;;;;;;3.30;1.33;;;;;;;11.14;100.00;100555.69;5024890;28;20412;-62
2023/09/23 04:46:47;;;;;;;1.98;1.23;;;;;;;11.13;100.00;100551.38;5026166;28;20500;-62
2023/09/23 04:49:12;;;;;;;2.42;1.10;;;;;;;11.09;100.00;100554.03;5029389;28;20033;-62
2023/09/23 04:51:38;;;;;;;6.45;1.52;;;;;;;11.12;100.00;100556.59;5026508;28;20502;-63
2023/09/23 04:54:03;;;;;;;3.75;1.23;;;;;;;11.11;100.00;100563.47;5027086;28;20507;-62
2023/09/23 04:56:29;;;;;;;6.57;1.40;;;;;;;11.09;100.00;100567.84;5026142;28;20048;-64
2023/09/23 04:58:58;;;;;;;4.72;1.40;;;;;;;11.11;100.00;100575.56;5021099;28;20049;-62
2023/09/23 05:01:24;;;;;;;2.85;1.10;;;;;;;11.10;100.00;100581.63;5026156;28;20044;-62
2023/09/23 05:03:51;;;;;;;3.28;1.10;;;;;;;11.09;100.00;100582.50;5035429;28;20032;-62
2023/09/23 05:06:17;;;;;;;2.38;1.13;;;;;;;11.06;100.00;100583.41;5030814;28;20561;-62
2023/09/23 05:08:43;;;;;;;2.15;1.20;;;;;;;11.05;100.00;100592.03;5038433;28;20041;-62
2023/09/23 05:11:11;;;;;;;2.92;1.30;;;;;;;11.08;100.00;100596.28;5031008;28;20102;-62
2023/09/23 05:13:37;;;;;;;2.63;1.45;;;;;;;11.09;100.00;100605.78;5029074;28;20045;-62
2023/09/23 05:16:03;;;;;;;4.07;1.40;;;;;;;11.09;100.00;100600.59;5027102;28;20038;-62
2023/09/23 05:18:29;;;;;;;6.18;1.65;;;;;;;11.08;100.00;100609.22;5029976;28;20496;-62
2023/09/23 05:20:54;;;;;;;3.45;1.40;;;;;;;11.08;100.00;100614.41;5030480;28;20072;-63
2023/09/23 05:23:23;;;;;;;2.83;1.73;;;;;;;11.10;100.00;100618.66;5035457;28;20111;-62
2023/09/23 05:25:48;;;;;;;3.97;1.00;;;;;;;11.12;100.00;100619.53;5029682;28;20126;-62
2023/09/23 05:28:14;;;;;;;5.85;1.58;;;;;;;11.15;100.00;100616.91;5028298;28;20041;-62
2023/09/23 05:30:42;;;;;;;5.45;1.50;;;;;;;11.15;100.00;100624.66;5032776;28;20056;-62
2023/09/23 05:33:08;;;;;;;4.55;1.48;;;;;;;11.13;100.00;100634.16;5030459;28;20460;-62
2023/09/23 05:35:35;;;;;;;3.40;1.45;;;;;;;11.14;100.00;100633.28;5029695;28;20450;-62
2023/09/23 05:38:00;;;;;;;4.90;1.52;;;;;;;11.14;100.00;100638.47;5030854;28;20038;-64
2023/09/23 05:40:26;;;;;;;5.32;1.50;;;;;;;11.16;100.00;100646.19;5029642;28;20038;-64
2023/09/23 05:42:55;;;;;;;4.57;1.20;;;;;;;11.17;100.00;100656.53;5028803;28;20078;-64
2023/09/23 05:45:24;;;;;;;4.25;1.38;;;;;;;11.20;100.00;100653.91;5029189;28;20411;-64
2023/09/23 05:47:51;;;;;;;1.92;1.38;;;;;;;11.26;100.00;100664.19;5029472;28;20041;-64
2023/09/23 05:50:17;;;;;;;5.68;1.35;;;;;;;11.32;100.00;100671.88;5032929;28;20495;-64
2023/09/23 05:52:45;;;;;;;3.95;1.48;;;;;;;11.34;100.00;100672.69;5030998;28;20559;-64
2023/09/23 05:55:11;;;;;;;6.53;2.22;;;;;;;11.41;100.00;100681.25;5030492;28;20037;-63
2023/09/23 05:57:38;;;;;;;3.20;1.55;;;;;;;11.48;100.00;100682.06;5029731;28;20037;-64
2023/09/23 06:00:05;;;;;;;3.42;1.40;;;;;;;11.50;100.00;100690.66;5030600;28;20028;-66
2023/09/23 06:02:32;;;;;;;1.83;1.33;;;;;;;11.50;100.00;100691.50;5029367;28;20045;-66
2023/09/23 06:05:01;;;;;;;2.50;1.05;;;;;;;11.55;100.00;100699.19;5029827;28;20412;-67
2023/09/23 06:07:27;;;;;;;2.65;1.20;;;;;;;11.66;100.00;100708.53;5038113;28;20112;-67
2023/09/23 06:09:52;;;;;;;4.53;1.50;;;;;;;11.80;100.00;100709.22;5035043;28;20075;-67
2023/09/23 06:12:18;;;;;;;2.45;1.50;;;;;;;11.91;100.00;100709.03;5030790;28;20068;-66
2023/09/23 06:14:43;;;;;;;3.17;1.73;;;;;;;12.00;100.00;100711.50;5029510;28;20065;-67
2023/09/23 06:17:08;;;;;;;5.72;1.85;;;;;;;12.06;100.00;100719.19;5033164;28;20037;-67
2023/09/23 06:19:34;;;;;;;5.22;1.60;;;;;;;12.08;100.00;100721.75;5034447;28;20123;-62
2023/09/23 06:21:59;;;;;;;2.17;1.25;;;;;;;12.10;100.00;100722.59;5031456;28;20125;-62
2023/09/23 06:24:25;;;;;;;2.17;1.05;;;;;;;12.11;100.00;100727.72;5028560;28;20100;-62
2023/09/23 06:26:50;;;;;;;3.03;1.27;;;;;;;12.15;100.00;100749.28;5028825;28;20040;-62
2023/09/23 06:29:15;;;;;;;2.28;1.25;;;;;;;12.17;100.00;100742.31;5030868;28;20034;-62
2023/09/23 06:31:41;;;;;;;2.33;1.35;;;;;;;12.22;100.00;100749.16;5031515;28;20696;-62
2023/09/23 06:34:07;;;;;;;4.90;1.27;;;;;;;12.28;100.00;100749.06;5028597;28;20041;-62
2023/09/23 06:36:33;;;;;;;3.55;1.35;;;;;;;12.38;100.00;100760.13;5028884;28;20132;-62
2023/09/23 06:38:59;;;;;;;1.67;1.23;;;;;;;12.44;100.00;100760.91;5029414;28;20041;-62
2023/09/23 06:41:24;;;;;;;3.13;1.05;;;;;;;12.50;99.96;100770.31;5028468;28;20034;-62
2023/09/23 06:43:51;;;;;;;2.38;1.27;;;;;;;12.57;99.35;100768.47;5028360;28;20034;-62
2023/09/23 06:46:16;;;;;;;3.97;1.00;;;;;;;12.58;99.87;100771.06;5027638;28;20086;-62
2023/09/23 06:48:42;;;;;;;1.63;1.00;;;;;;;12.60;99.81;100769.28;5028781;28;20045;-62
2023/09/23 06:51:08;;;;;;;4.53;1.13;;;;;;;12.64;99.83;100772.69;5030988;28;20120;-62
2023/09/23 06:53:34;;;;;;;2.28;1.13;;;;;;;12.66;99.47;100768.34;5033886;28;20037;-62
2023/09/23 06:55:59;;;;;;;3.63;1.30;;;;;;;12.73;99.15;100782.91;5029643;28;20547;-62
2023/09/23 06:58:24;;;;;;;4.40;1.75;;;;;;;12.78;98.89;100781.09;5032163;28;20029;-62
2023/09/23 07:00:50;;;;;;;5.38;1.48;;;;;;;12.81;98.66;100779.31;5029778;28;20042;-62
2023/09/23 07:03:15;;;;;;;6.43;1.10;;;;;;;12.87;98.32;100784.38;5034211;28;20029;-62
2023/09/23 07:05:42;;;;;;;3.55;1.30;;;;;;;12.90;98.36;100783.47;5027015;28;20567;-62
2023/09/23 07:08:07;;;;;;;2.80;1.10;;;;;;;12.96;98.21;100793.75;5034927;28;20047;-62
2023/09/23 07:10:36;;;;;;;2.28;1.00;;;;;;;13.02;98.35;100795.41;5029649;28;20049;-63
2023/09/23 07:13:03;;;;;;;3.47;1.48;;;;;;;13.08;98.11;100808.28;5028889;28;20121;-62
2023/09/23 07:15:30;;;;;;;5.13;1.52;;;;;;;13.12;98.00;100810.78;5027606;28;20116;-62
2023/09/23 07:17:56;;;;;;;4.55;1.23;;;;;;;13.20;97.25;100808.06;5026520;28;20034;-63
2023/09/23 07:20:22;;;;;;;2.92;1.23;;;;;;;13.31;95.38;100798.31;5030966;28;20404;-62
2023/09/23 07:22:47;;;;;;;1.05;0.80;;;;;;;13.40;94.73;100808.53;5040084;28;20063;-62
2023/09/23 07:25:12;;;;;;;2.63;0.88;;;;;;;13.45;95.25;100810.16;5033176;28;20056;-64
2023/09/23 07:27:38;;;;;;;2.85;1.20;;;;;;;13.50;95.58;100820.47;5029680;28;20052;-66
2023/09/23 07:30:04;;;;;;;1.63;0.90;;;;;;;13.56;95.50;100825.53;5037362;28;20037;-67
2023/09/23 07:32:29;;;;;;;3.60;1.13;;;;;;;13.66;94.41;100815.78;5029835;28;20038;-67
2023/09/23 07:34:54;;;;;;;3.42;1.20;;;;;;;13.78;93.36;100821.59;5030700;28;20026;-67
2023/09/23 07:37:20;;;;;;;3.20;1.05;;;;;;;13.88;91.88;100819.69;5028882;28;20090;-67
2023/09/23 07:39:45;;;;;;;4.07;1.35;;;;;;;13.99;90.29;100804.72;5026165;28;20041;-67
2023/09/23 07:42:10;;;;;;;2.55;1.25;;;;;;;14.12;87.86;100798.38;5056517;28;20098;-64
2023/09/23 07:44:36;;;;;;;4.53;1.00;;;;;;;14.20;89.10;100825.03;5028487;28;20060;-63
2023/09/23 07:47:01;;;;;;;3.78;1.23;;;;;;;14.28;87.56;100817.91;5028878;28;20283;-64
2023/09/23 07:49:26;;;;;;;2.60;1.00;;;;;;;14.38;86.91;100823.81;5027233;28;20156;-63
2023/09/23 07:51:53;;;;;;;2.53;0.90;;;;;;;14.46;86.90;100833.13;5027605;28;20056;-64
2023/09/23 07:54:18;;;;;;;3.00;1.20;;;;;;;14.52;86.35;100827.78;5028347;28;20041;-63
2023/09/23 07:56:44;;;;;;;3.63;1.25;;;;;;;14.57;86.11;100831.13;5031118;28;20087;-64
2023/09/23 07:59:10;;;;;;;2.20;1.00;;;;;;;14.63;85.64;100836.19;5028710;28;20488;-64
2023/09/23 08:01:35;;;;;;;3.80;1.30;;;;;;;14.71;85.22;100836.03;5031138;28;20053;-64
2023/09/23 08:04:01;;;;;;;3.70;1.27;;;;;;;14.76;84.31;100841.09;5034087;28;20037;-64
2023/09/23 08:06:26;;;;;;;2.55;1.17;;;;;;;14.84;84.27;100850.44;5027279;28;20819;-64
2023/09/23 08:08:52;;;;;;;4.78;1.10;;;;;;;14.97;84.86;100857.06;5024675;28;20037;-64
2023/09/23 08:11:17;;;;;;;4.70;1.50;;;;;;;15.14;82.85;100839.25;5027076;28;20086;-64
2023/09/23 08:13:42;;;;;;;3.47;0.95;;;;;;;15.22;81.51;100852.09;5025805;28;20042;-64
2023/09/23 08:16:08;;;;;;;5.57;1.70;;;;;;;15.25;82.70;100865.03;5025392;28;20034;-64
2023/09/23 08:18:33;;;;;;;2.90;1.48;;;;;;;15.31;82.39;100864.88;5026478;28;20029;-64
2023/09/23 08:20:59;;;;;;;8.60;1.30;;;;;;;15.41;79.79;100845.47;5028603;28;20064;-63
2023/09/23 08:23:24;;;;;;;5.05;1.40;;;;;;;15.48;78.43;100836.63;5023772;28;20037;-64
2023/09/23 08:25:50;;;;;;;1.98;0.93;;;;;;;15.53;79.57;100854.72;5027427;28;20481;-63
2023/09/23 08:28:15;;;;;;;3.92;1.15;;;;;;;15.54;77.69;100840.81;5027914;28;20034;-63
2023/09/23 08:30:43;;;;;;;1.20;0.85;;;;;;;15.56;78.54;100852.03;5030696;28;20029;-63
2023/09/23 08:33:09;;;;;;;3.97;1.33;;;;;;;15.56;78.50;100852.88;5027991;28;20037;-63
2023/09/23 08:35:35;;;;;;;3.28;1.05;;;;;;;15.65;78.72;100870.91;5027091;28;20488;-64
2023/09/23 08:38:00;;;;;;;4.30;1.00;;;;;;;15.63;77.14;100853.63;5028694;28;20037;-63
2023/09/23 08:40:31;;;;;;;3.30;0.90;;;;;;;15.69;77.77;100866.47;5026759;28;20044;-63
2023/09/23 08:43:03;;;;;;;4.38;1.30;;;;;;;15.83;77.18;100861.72;5027352;28;20029;-63
2023/09/23 08:45:30;;;;;;;3.22;1.20;;;;;;;16.02;75.77;100849.03;5026884;28;20047;-63
2023/09/23 08:47:56;;;;;;;2.53;0.80;;;;;;;16.19;75.55;100854.59;5026763;28;20033;-63
2023/09/23 08:50:26;;;;;;;2.65;1.50;;;;;;;16.30;75.29;100855.09;5027647;28;20044;-63
2023/09/23 08:52:52;;;;;;;7.22;1.08;;;;;;;16.33;75.01;100848.06;5027543;28;20065;-63
2023/09/23 08:55:18;;;;;;;5.15;1.40;;;;;;;16.36;73.04;100823.63;5027399;28;20498;-62
2023/09/23 08:57:43;;;;;;;3.97;0.90;;;;;;;16.40;72.21;100819.16;5027805;28;20504;-63
2023/09/23 09:00:10;;;;;;;3.13;1.05;;;;;;;16.34;70.96;100804.56;5029825;28;20044;-63
2023/09/23 09:02:36;;;;;;;1.33;0.73;;;;;;;16.36;70.49;100807.97;5024882;28;20033;-63
2023/09/23 09:05:02;;;;;;;2.78;1.00;;;;;;;16.43;68.60;100769.50;5027578;28;20124;-63
2023/09/23 09:07:34;;;;;;;3.63;1.05;;;;;;;16.53;70.94;100829.19;5025518;28;20188;-63
2023/09/23 09:10:00;;;;;;;2.13;0.98;;;;;;;16.58;70.02;100814.22;5028412;28;20562;-63
2023/09/23 09:12:26;;;;;;;3.50;1.00;;;;;;;16.60;68.40;100777.63;5020419;28;20392;-62
2023/09/23 09:14:51;;;;;;;3.22;1.00;;;;;;;16.66;68.73;100808.75;5027225;28;20518;-63
2023/09/23 09:17:18;;;;;;;3.45;0.93;;;;;;;16.85;68.89;100815.13;5024209;28;20049;-63
2023/09/23 09:19:43;;;;;;;4.20;0.90;;;;;;;17.06;69.37;100818.75;5026976;28;20033;-63
2023/09/23 09:22:10;;;;;;;1.70;0.80;;;;;;;17.13;67.51;100797.59;5034050;28;20503;-63
2023/09/23 09:24:35;;;;;;;2.70;1.00;;;;;;;17.14;66.00;100767.97;5025443;28;20455;-63
2023/09/23 09:27:00;;;;;;;4.10;1.00;;;;;;;17.15;68.04;100821.06;5027981;28;20042;-63
2023/09/23 09:29:26;;;;;;;4.70;1.15;;;;;;;17.30;68.03;100834.47;5027553;28;20033;-62
2023/09/23 09:31:54;;;;;;;3.00;1.10;;;;;;;17.46;67.21;100807.75;5026406;28;20045;-63
2023/09/23 09:34:24;;;;;;;2.20;0.93;;;;;;;17.62;66.17;100799.31;5026612;28;20068;-63
2023/09/23 09:36:55;;;;;;;3.65;1.17;;;;;;;17.70;64.52;100765.03;5025557;28;20037;-63
2023/09/23 09:39:28;;;;;;;3.72;1.10;;;;;;;17.67;64.83;100776.47;5027747;28;20025;-63
2023/09/23 09:41:54;;;;;;;2.70;0.77;;;;;;;17.61;63.24;100749.69;5027418;28;20033;-63
2023/09/23 09:44:22;;;;;;;4.07;0.93;;;;;;;17.62;63.01;100752.28;5028911;28;20420;-64
2023/09/23 09:46:48;;;;;;;6.07;1.15;;;;;;;17.87;63.69;100771.38;5030332;28;20451;-63
2023/09/23 09:49:16;;;;;;;4.07;1.20;;;;;;;17.94;62.63;100754.53;5030403;28;20107;-64
2023/09/23 09:51:42;;;;;;;3.20;0.98;;;;;;;18.08;62.79;100763.63;5030186;28;20033;-63
2023/09/23 09:54:11;;;;;;;3.85;1.08;;;;;;;18.21;63.07;100776.16;5031107;28;20212;-63
2023/09/23 09:56:39;;;;;;;3.78;0.80;;;;;;;18.08;62.83;100761.03;5030027;28;20064;-64
2023/09/23 09:59:04;;;;;;;2.83;0.77;;;;;;;18.23;62.05;100760.38;5031303;28;20447;-63
2023/09/23 10:01:30;;;;;;;2.30;1.02;;;;;;;18.26;62.55;100761.13;5032620;28;20029;-63
2023/09/23 10:03:55;;;;;;;2.95;1.00;;;;;;;18.38;62.45;100760.63;5027623;28;20029;-63
2023/09/23 10:06:22;;;;;;;1.45;0.80;;;;;;;18.46;62.10;100757.72;5030732;28;20140;-63
2023/09/23 10:08:48;;;;;;;3.30;1.10;;;;;;;18.53;61.24;100748.69;5033165;28;20044;-63
2023/09/23 10:11:15;;;;;;;2.40;0.85;;;;;;;18.49;61.18;100737.47;5034119;28;20128;-65
2023/09/23 10:13:42;;;;;;;1.88;0.90;;;;;;;18.22;62.32;100785.72;5029459;28;20602;-63
2023/09/23 10:16:18;;;;;;;3.65;1.15;;;;;;;18.10;61.92;100778.34;5027788;28;20041;-63
2023/09/23 10:18:53;;;;;;;2.42;0.80;;;;;;;17.92;62.61;100797.38;5030405;28;20065;-63
2023/09/23 10:21:29;;;;;;;1.25;0.68;;;;;;;17.75;61.27;100781.44;5036736;28;20196;-63
2023/09/23 10:23:56;;;;;;;3.10;0.98;;;;;;;17.75;62.88;100804.97;5026084;28;20053;-63
2023/09/23 10:26:23;;;;;;;1.88;0.73;;;;;;;17.83;62.12;100797.69;5031051;28;20095;-62
2023/09/23 10:29:05;;;;;;;1.77;0.60;;;;;;;18.16;62.63;100809.50;5023540;28;20025;-63
2023/09/23 10:31:32;;;;;;;3.70;0.60;;;;;;;18.42;61.39;100785.78;5030781;28;20087;-62
2023/09/23 10:34:04;;;;;;;1.88;0.88;;;;;;;18.66;59.70;100751.66;5028597;28;20075;-63
2023/09/23 10:36:29;;;;;;;3.28;0.82;;;;;;;18.84;58.85;100745.66;5028667;28;20083;-63
2023/09/23 10:38:56;;;;;;;3.08;0.88;;;;;;;19.03;58.90;100742.19;5030149;28;20030;-62
2023/09/23 10:41:30;;;;;;;1.60;0.80;;;;;;;19.04;57.92;100733.44;5029665;28;20053;-63
2023/09/23 10:43:55;;;;;;;2.13;1.00;;;;;;;18.90;58.47;100755.91;5029156;28;20034;-63
2023/09/23 10:46:21;;;;;;;2.70;0.80;;;;;;;18.67;58.18;100750.75;5027712;28;20497;-62
2023/09/23 10:48:46;;;;;;;3.70;1.10;;;;;;;18.42;58.63;100767.47;5029353;28;20486;-63
2023/09/23 10:51:12;;;;;;;2.28;0.73;;;;;;;18.04;59.68;100798.66;5029258;28;20039;-63
2023/09/23 10:53:38;;;;;;;1.80;0.70;;;;;;;17.78;62.03;100842.28;5028905;28;20042;-63
2023/09/23 10:56:04;;;;;;;3.42;0.88;;;;;;;17.70;63.59;100883.53;5029380;28;20045;-62
2023/09/23 10:58:31;;;;;;;4.32;0.95;;;;;;;17.54;64.51;100895.47;5029176;28;20519;-63
2023/09/23 11:00:57;;;;;;;1.67;0.70;;;;;;;17.43;64.79;100902.81;5029222;28;20033;-63
2023/09/23 11:03:23;;;;;;;3.83;0.70;;;;;;;17.40;65.05;100913.34;5035440;28;20024;-62
2023/09/23 11:05:49;;;;;;;3.42;0.80;;;;;;;17.35;65.16;100912.66;5029996;28;20483;-63
2023/09/23 11:08:16;;;;;;;3.13;0.82;;;;;;;17.31;64.54;100898.84;5027922;28;20033;-63
2023/09/23 11:10:43;;;;;;;1.45;0.57;;;;;;;17.29;64.19;100890.22;5029995;28;20511;-63
2023/09/23 11:13:13;;;;;;;4.15;0.93;;;;;;;17.32;64.34;100900.56;5029527;28;20451;-63
2023/09/23 11:15:40;;;;;;;3.35;0.85;;;;;;;17.30;64.66;100918.06;5029812;28;20021;-63
2023/09/23 11:18:10;;;;;;;1.95;0.90;;;;;;;17.23;65.34;100936.59;5027384;28;20108;-63
2023/09/23 11:20:38;;;;;;;3.60;1.13;;;;;;;17.25;66.32;100964.38;5026713;28;20041;-62